Time;durP1;ratioP1;P1;durP2;ratioP2;P2;SDS_P1;SDS_P2;PMS_P1;PMS_P2;Temp;Humidity;BMP_temperature;BMP_pressure;BME280_temperature;BME280_humidity;BME280_pressure;Samples;Min_cycle;Max_cycle;Signal;HPM_P1;HPM_P2
2024/04/25 00:01:21;;;;;;;5.30;5.00;;;;;;;10.13;100.00;99189.56;87145;268;136742;-68
2024/04/25 00:03:22;;;;;;;6.20;5.70;;;;;;;10.14;100.00;99192.48;87172;272;22563;-69
2024/04/25 00:05:23;;;;;;;6.20;5.60;;;;;;;10.15;100.00;99186.56;87056;268;138132;-68
2024/04/25 00:07:23;;;;;;;10.20;5.50;;;;;;;10.18;100.00;99191.71;87100;272;22561;-69
2024/04/25 00:09:24;;;;;;;5.20;4.80;;;;;;;10.19;100.00;99197.24;87123;268;138423;-68
2024/04/25 00:11:26;;;;;;;6.10;5.40;;;;;;;10.20;100.00;99200.30;87279;274;25127;-69
2024/04/25 00:13:27;;;;;;;4.80;4.40;;;;;;;10.21;100.00;99198.94;87048;270;136445;-69
2024/04/25 00:15:27;;;;;;;6.90;6.40;;;;;;;10.21;100.00;99200.98;87113;270;26676;-68
2024/04/25 00:17:28;;;;;;;6.80;4.60;;;;;;;10.21;100.00;99201.94;87113;276;137600;-69
2024/04/25 00:19:29;;;;;;;5.90;5.20;;;;;;;10.22;100.00;99209.83;87184;272;22566;-68
2024/04/25 00:21:29;;;;;;;6.30;5.20;;;;;;;10.21;100.00;99215.58;87189;276;138626;-69
2024/04/25 00:23:30;;;;;;;6.20;5.70;;;;;;;10.21;100.00;99217.50;87271;274;25418;-70
2024/04/25 00:25:30;;;;;;;6.90;5.60;;;;;;;10.22;100.00;99213.70;87028;271;136884;-69
2024/04/25 00:27:31;;;;;;;5.90;5.50;;;;;;;10.24;100.00;99206.70;87268;268;22584;-67
2024/04/25 00:29:32;;;;;;;7.30;6.60;;;;;;;10.23;100.00;99199.98;87072;268;138287;-68
2024/04/25 00:31:33;;;;;;;6.90;6.30;;;;;;;10.25;100.00;99200.34;87109;271;22652;-69
2024/04/25 00:33:34;;;;;;;6.60;6.10;;;;;;;10.27;100.00;99203.94;87109;278;136769;-69
2024/04/25 00:35:34;;;;;;;8.30;5.80;;;;;;;10.30;100.00;99210.64;87277;275;25180;-69
2024/04/25 00:37:35;;;;;;;6.70;5.90;;;;;;;10.32;100.00;99209.92;87120;271;138150;-69
2024/04/25 00:39:36;;;;;;;7.30;6.60;;;;;;;10.35;100.00;99211.55;87283;273;23808;-70
2024/04/25 00:41:36;;;;;;;6.60;5.90;;;;;;;10.38;100.00;99212.55;87113;278;136455;-69
2024/04/25 00:43:37;;;;;;;5.80;5.40;;;;;;;10.40;100.00;99218.42;87352;270;24153;-69
2024/04/25 00:45:38;;;;;;;5.90;5.40;;;;;;;10.37;100.00;99222.03;87055;271;138355;-69
2024/04/25 00:47:39;;;;;;;6.40;5.80;;;;;;;10.32;100.00;99227.02;87089;271;22538;-68
2024/04/25 00:49:40;;;;;;;8.30;6.20;;;;;;;10.25;100.00;99230.05;87047;268;136896;-68
2024/04/25 00:51:41;;;;;;;6.50;5.90;;;;;;;10.20;100.00;99233.13;87166;266;25189;-68
2024/04/25 00:53:42;;;;;;;7.30;6.60;;;;;;;10.14;100.00;99231.98;87204;278;137947;-69
2024/04/25 00:55:45;;;;;;;8.10;7.30;;;;;;;10.08;100.00;99234.40;87255;271;22661;-70
2024/04/25 00:57:47;;;;;;;5.40;5.00;;;;;;;10.04;100.00;99233.11;87506;274;136351;-68
2024/04/25 00:59:51;;;;;;;6.70;6.00;;;;;;;9.97;100.00;99236.81;87461;267;22549;-70
2024/04/25 01:01:53;;;;;;;6.20;5.70;;;;;;;9.91;100.00;99236.15;87096;278;136768;-69
2024/04/25 01:04:00;;;;;;;6.20;5.70;;;;;;;9.85;100.00;99231.92;87080;268;22576;-69
2024/04/25 01:06:05;;;;;;;8.60;6.70;;;;;;;9.78;100.00;99237.48;87090;266;136966;-68
2024/04/25 01:08:07;;;;;;;7.30;6.60;;;;;;;9.71;100.00;99239.66;87075;279;136998;-69
2024/04/25 01:10:07;;;;;;;10.50;7.30;;;;;;;9.67;100.00;99248.31;87332;276;25303;-70
2024/04/25 01:12:09;;;;;;;7.30;6.60;;;;;;;9.65;100.00;99250.36;87104;272;137961;-68
2024/04/25 01:14:09;;;;;;;7.20;6.50;;;;;;;9.62;100.00;99254.71;87189;271;22678;-69
2024/04/25 01:16:13;;;;;;;8.10;7.00;;;;;;;9.59;100.00;99253.20;87091;272;136524;-70
2024/04/25 01:18:15;;;;;;;7.50;6.90;;;;;;;9.56;100.00;99245.77;87211;276;23763;-68
2024/04/25 01:20:15;;;;;;;7.00;6.30;;;;;;;9.53;100.00;99246.46;87010;271;136926;-69
2024/04/25 01:22:17;;;;;;;12.40;7.40;;;;;;;9.51;100.00;99239.70;87094;263;24150;-68
2024/04/25 01:24:28;;;;;;;9.20;8.30;;;;;;;9.50;100.00;99239.10;86998;268;136635;-69
2024/04/25 01:26:29;;;;;;;7.70;7.00;;;;;;;9.50;100.00;99236.48;87133;280;23884;-69
2024/04/25 01:28:32;;;;;;;7.80;7.10;;;;;;;9.48;100.00;99242.02;87075;268;136982;-68
2024/04/25 01:30:34;;;;;;;8.70;7.80;;;;;;;9.47;100.00;99242.21;87286;269;22575;-67
2024/04/25 01:32:36;;;;;;;7.50;6.90;;;;;;;9.47;100.00;99246.52;87081;271;138195;-68
2024/04/25 01:34:37;;;;;;;7.40;6.70;;;;;;;9.46;100.00;99244.35;87295;280;22649;-67
2024/04/25 01:36:41;;;;;;;8.80;7.70;;;;;;;9.45;100.00;99243.65;87064;271;136805;-67
2024/04/25 01:38:42;;;;;;;10.40;7.30;;;;;;;9.45;100.00;99241.19;87201;272;22571;-70
2024/04/25 01:40:43;;;;;;;7.90;7.10;;;;;;;9.45;100.00;99243.16;87065;271;137033;-68
2024/04/25 01:42:44;;;;;;;9.80;7.80;;;;;;;9.44;100.00;99251.80;87061;276;22610;-69
2024/04/25 01:44:45;;;;;;;11.20;8.30;;;;;;;9.43;100.00;99258.67;87020;264;136963;-70
2024/04/25 01:46:46;;;;;;;8.40;7.60;;;;;;;9.42;100.00;99259.70;87179;271;22566;-68
2024/04/25 01:48:47;;;;;;;8.30;7.60;;;;;;;9.41;100.00;99261.73;87077;263;136846;-69
2024/04/25 01:50:48;;;;;;;11.20;9.10;;;;;;;9.38;100.00;99259.83;87233;275;22562;-68
2024/04/25 01:52:48;;;;;;;9.40;8.40;;;;;;;9.33;100.00;99265.48;87165;270;137668;-69
2024/04/25 01:54:49;;;;;;;9.50;8.60;;;;;;;9.29;100.00;99268.50;87276;276;22576;-68
2024/04/25 01:56:49;;;;;;;9.30;8.00;;;;;;;9.25;100.00;99272.81;87208;280;136633;-69
2024/04/25 01:58:52;;;;;;;8.10;7.50;;;;;;;9.24;100.00;99270.27;87213;268;24029;-69
2024/04/25 02:00:53;;;;;;;9.70;8.80;;;;;;;9.24;100.00;99269.84;87557;272;138259;-69
2024/04/25 02:02:54;;;;;;;7.70;7.00;;;;;;;9.25;100.00;99269.66;87679;270;25073;-68
2024/04/25 02:04:55;;;;;;;9.10;8.10;;;;;;;9.27;100.00;99272.41;87451;278;136181;-69
2024/04/25 02:06:55;;;;;;;10.80;9.40;;;;;;;9.28;100.00;99273.10;87251;275;22611;-68
2024/04/25 02:08:57;;;;;;;9.30;8.40;;;;;;;9.30;100.00;99278.58;87040;279;136526;-69
2024/04/25 02:10:58;;;;;;;9.40;8.60;;;;;;;9.31;100.00;99281.80;87182;268;22584;-68
2024/04/25 02:12:58;;;;;;;9.00;8.10;;;;;;;9.32;100.00;99287.21;87123;278;136851;-69
2024/04/25 02:14:59;;;;;;;9.10;8.20;;;;;;;9.32;100.00;99287.49;87135;268;22655;-67
2024/04/25 02:17:00;;;;;;;8.80;8.00;;;;;;;9.32;100.00;99282.52;87047;270;137177;-70
2024/04/25 02:19:00;;;;;;;9.90;8.10;;;;;;;9.33;100.00;99284.46;87237;270;22680;-69
2024/04/25 02:25:40;;;;;;;10.10;8.90;;;;;;;9.26;100.00;99294.38;87141;275;138130;-70
2024/04/25 02:27:41;;;;;;;12.10;9.80;;;;;;;9.24;100.00;99294.66;87413;270;22572;-70
2024/04/25 02:29:42;;;;;;;12.30;9.90;;;;;;;9.23;100.00;99299.20;87182;270;136199;-71
2024/04/25 02:31:42;;;;;;;24.70;9.90;;;;;;;9.21;100.00;99302.30;87157;266;22529;-70
2024/04/25 02:33:43;;;;;;;9.60;8.70;;;;;;;9.20;100.00;99304.42;87084;269;137292;-69
2024/04/25 02:35:44;;;;;;;12.20;9.40;;;;;;;9.15;100.00;99307.10;87449;271;26300;-67
2024/04/25 02:37:44;;;;;;;26.80;9.30;;;;;;;9.10;100.00;99306.30;87208;271;138493;-68
2024/04/25 02:39:47;;;;;;;21.50;9.10;;;;;;;9.07;100.00;99307.17;87285;272;22561;-68
2024/04/25 02:41:48;;;;;;;13.30;9.20;;;;;;;9.06;100.00;99311.92;87187;271;138026;-69
2024/04/25 02:43:49;;;;;;;29.00;10.00;;;;;;;9.03;100.00;99310.88;87256;280;24244;-67
2024/04/25 02:45:49;;;;;;;30.50;9.60;;;;;;;8.99;100.00;99314.90;87201;271;137185;-66
2024/04/25 02:47:51;;;;;;;24.10;10.20;;;;;;;8.96;100.00;99313.91;87290;266;24007;-68
2024/04/25 02:49:51;;;;;;;23.30;9.10;;;;;;;8.95;100.00;99315.55;86974;272;137413;-68
2024/04/25 02:51:52;;;;;;;17.80;9.40;;;;;;;8.95;100.00;99314.36;86437;271;1026574;-68
2024/04/25 02:53:53;;;;;;;45.00;10.50;;;;;;;8.95;100.00;99313.34;87008;269;137779;-66
2024/04/25 02:55:53;;;;;;;11.80;9.20;;;;;;;8.93;100.00;99312.56;87221;278;24043;-69
2024/04/25 02:57:55;;;;;;;21.80;9.00;;;;;;;8.92;100.00;99316.07;87084;271;137037;-69
2024/04/25 02:59:55;;;;;;;19.20;9.60;;;;;;;8.91;100.00;99318.69;87471;271;22556;-70
2024/04/25 03:01:56;;;;;;;35.70;10.20;;;;;;;8.90;100.00;99319.98;87315;275;136410;-71
2024/04/25 03:03:57;;;;;;;17.50;10.20;;;;;;;8.91;100.00;99319.14;87492;275;22737;-70
2024/04/25 03:05:58;;;;;;;18.10;10.10;;;;;;;8.94;100.00;99314.16;87310;275;137975;-69
2024/04/25 03:07:59;;;;;;;17.50;9.70;;;;;;;8.96;100.00;99314.88;87265;278;22547;-68
2024/04/25 03:09:59;;;;;;;11.30;9.80;;;;;;;8.98;100.00;99314.89;86876;272;136270;-68
2024/04/25 03:12:00;;;;;;;15.60;10.10;;;;;;;8.98;100.00;99317.19;87088;271;22579;-68
2024/04/25 03:14:01;;;;;;;12.00;10.70;;;;;;;8.98;100.00;99314.55;87085;270;136510;-68
2024/04/25 03:16:04;;;;;;;11.90;10.70;;;;;;;8.97;100.00;99317.67;87146;271;22582;-69
2024/04/25 03:18:05;;;;;;;10.70;9.40;;;;;;;8.99;100.00;99319.34;87161;278;22569;-68
2024/04/25 03:20:06;;;;;;;10.90;10.00;;;;;;;9.03;100.00;99322.45;87129;278;136964;-69
2024/04/25 03:22:07;;;;;;;10.90;10.00;;;;;;;9.07;100.00;99317.36;87258;273;22723;-69
2024/04/25 03:24:07;;;;;;;9.30;8.50;;;;;;;9.18;100.00;99314.87;87123;266;136879;-69
2024/04/25 03:26:09;;;;;;;12.10;10.50;;;;;;;9.36;100.00;99316.00;87169;271;25134;-68
2024/04/25 03:28:09;;;;;;;11.90;10.90;;;;;;;9.61;100.00;99313.09;87043;270;137283;-69
2024/04/25 03:30:11;;;;;;;10.90;9.90;;;;;;;9.96;100.00;99312.64;87209;271;25077;-68
2024/04/25 03:32:11;;;;;;;10.60;9.50;;;;;;;10.41;100.00;99314.42;87150;276;141182;-67
2024/04/25 03:34:12;;;;;;;10.20;9.20;;;;;;;10.93;100.00;99319.77;87232;270;22771;-68
2024/04/25 03:36:12;;;;;;;9.80;8.80;;;;;;;11.44;100.00;99319.40;87250;279;136966;-67
2024/04/25 03:38:13;;;;;;;8.90;8.10;;;;;;;11.90;100.00;99317.53;87203;270;22565;-68
2024/04/25 03:40:14;;;;;;;9.80;8.80;;;;;;;12.34;100.00;99309.39;87213;277;137578;-67
2024/04/25 03:42:15;;;;;;;9.80;7.50;;;;;;;12.80;100.00;99303.38;87254;274;24263;-68
2024/04/25 03:44:16;;;;;;;8.40;7.70;;;;;;;13.30;100.00;99302.80;87107;279;137201;-69
2024/04/25 03:46:16;;;;;;;8.20;7.00;;;;;;;13.74;100.00;99306.64;87194;268;22549;-66
2024/04/25 03:48:17;;;;;;;6.70;6.20;;;;;;;14.08;100.00;99307.85;87140;279;138080;-67
2024/04/25 03:50:20;;;;;;;7.10;6.60;;;;;;;14.39;100.00;99316.67;87241;268;22567;-68
2024/04/25 03:52:21;;;;;;;6.80;6.10;;;;;;;14.65;100.00;99319.55;87257;267;137034;-69
2024/04/25 03:54:22;;;;;;;6.90;6.30;;;;;;;14.92;100.00;99319.98;87302;279;25283;-69
2024/04/25 03:56:22;;;;;;;7.40;6.70;;;;;;;15.24;100.00;99319.18;87141;274;136893;-68
2024/04/25 03:58:23;;;;;;;6.30;5.80;;;;;;;15.67;100.00;99329.99;87278;279;22532;-67
2024/04/25 04:00:24;;;;;;;5.90;5.20;;;;;;;16.00;100.00;99330.53;87354;271;139236;-68
2024/04/25 04:02:24;;;;;;;7.80;5.70;;;;;;;16.30;100.00;99326.88;87255;276;21825;-68
2024/04/25 04:04:25;;;;;;;6.10;5.20;;;;;;;16.54;100.00;99326.23;87080;268;136627;-68
2024/04/25 04:06:25;;;;;;;5.30;4.90;;;;;;;16.67;100.00;99323.58;87332;266;25025;-66
2024/04/25 04:08:26;;;;;;;5.10;4.60;;;;;;;16.74;100.00;99327.68;87150;271;137516;-68
2024/04/25 04:10:27;;;;;;;4.30;4.10;;;;;;;16.80;100.00;99335.66;87248;270;24253;-69
2024/04/25 04:12:28;;;;;;;7.20;5.40;;;;;;;16.92;100.00;99336.99;87347;276;137664;-70
2024/04/25 04:14:29;;;;;;;5.70;5.10;;;;;;;17.22;100.00;99335.64;87512;274;22578;-70
2024/04/25 04:16:29;;;;;;;4.60;4.30;;;;;;;17.54;100.00;99339.66;87372;274;136662;-67
2024/04/25 04:18:30;;;;;;;6.60;5.60;;;;;;;17.76;100.00;99341.70;87159;270;25726;-69
2024/04/25 04:20:33;;;;;;;4.60;4.30;;;;;;;17.96;100.00;99335.31;87085;271;137113;-67
2024/04/25 04:22:34;;;;;;;5.20;4.30;;;;;;;18.07;100.00;99332.90;87583;270;22561;-70
2024/04/25 04:24:34;;;;;;;4.90;4.50;;;;;;;18.16;100.00;99334.98;87001;268;136492;-68
2024/04/25 04:26:35;;;;;;;6.00;4.40;;;;;;;18.29;100.00;99333.48;87261;277;26284;-67
2024/04/25 04:28:36;;;;;;;4.60;4.30;;;;;;;18.49;100.00;99335.71;87169;271;136949;-68
2024/04/25 04:30:36;;;;;;;4.90;4.50;;;;;;;18.76;100.00;99338.12;87420;268;25105;-69
2024/04/25 04:32:37;;;;;;;5.90;4.60;;;;;;;18.91;100.00;99343.35;87355;270;137572;-69
2024/04/25 04:34:38;;;;;;;4.60;4.20;;;;;;;19.00;100.00;99345.80;87628;270;25133;-66
2024/04/25 04:36:38;;;;;;;5.20;4.80;;;;;;;19.21;100.00;99349.16;87171;271;136747;-67
2024/04/25 04:38:39;;;;;;;5.10;4.70;;;;;;;19.48;100.00;99352.13;87384;266;26309;-67
2024/04/25 04:40:40;;;;;;;5.80;5.10;;;;;;;19.57;100.00;99353.54;87080;273;136499;-68
2024/04/25 04:42:40;;;;;;;3.60;3.40;;;;;;;19.54;100.00;99355.27;87200;271;22574;-66
2024/04/25 04:44:41;;;;;;;4.70;4.30;;;;;;;19.45;100.00;99355.70;87087;271;136644;-67
2024/04/25 04:46:42;;;;;;;5.60;3.90;;;;;;;19.32;100.00;99353.33;87117;272;22570;-68
2024/04/25 04:48:45;;;;;;;5.40;4.90;;;;;;;19.30;100.00;99351.38;87033;272;137618;-66
2024/04/25 04:50:46;;;;;;;4.90;4.40;;;;;;;19.24;100.00;99347.00;87256;271;22737;-68
2024/04/25 04:52:47;;;;;;;4.20;3.90;;;;;;;19.32;100.00;99347.37;87026;266;137836;-65
2024/04/25 04:54:47;;;;;;;5.00;4.60;;;;;;;19.48;100.00;99349.16;87114;276;23892;-68
2024/04/25 04:56:48;;;;;;;4.90;4.40;;;;;;;19.54;100.00;99354.73;87095;271;137901;-67
2024/04/25 04:58:49;;;;;;;6.60;5.50;;;;;;;19.59;100.00;99352.39;87204;278;22571;-67
2024/04/25 05:00:50;;;;;;;4.60;4.30;;;;;;;19.71;100.00;99355.45;87027;279;136685;-69
2024/04/25 05:02:52;;;;;;;4.20;3.90;;;;;;;19.74;100.00;99359.27;87106;271;22618;-69
2024/04/25 05:04:52;;;;;;;3.90;3.60;;;;;;;19.71;100.00;99360.77;87220;271;135820;-68
2024/04/25 05:06:54;;;;;;;4.10;2.80;;;;;;;19.64;100.00;99363.85;87467;269;25133;-68
2024/04/25 05:08:55;;;;;;;3.00;2.70;;;;;;;19.55;100.00;99363.75;87249;271;137406;-68
2024/04/25 05:10:56;;;;;;;4.80;4.10;;;;;;;19.36;100.00;99358.89;87310;272;25123;-67
2024/04/25 05:12:56;;;;;;;4.00;3.40;;;;;;;19.25;100.00;99364.35;87263;272;136442;-68
2024/04/25 05:14:57;;;;;;;3.80;3.50;;;;;;;19.29;100.00;99367.70;87464;268;22611;-70
2024/04/25 05:16:57;;;;;;;4.20;3.60;;;;;;;19.43;100.00;99365.58;87595;272;136310;-70
2024/04/25 05:18:59;;;;;;;6.30;4.30;;;;;;;19.35;100.00;99372.13;87410;280;24170;-69
2024/04/25 05:21:00;;;;;;;4.60;4.30;;;;;;;19.04;100.00;99375.92;87596;274;136032;-70
2024/04/25 05:23:01;;;;;;;5.10;4.70;;;;;;;18.72;100.00;99377.02;87614;270;25082;-67
2024/04/25 05:25:03;;;;;;;4.70;4.30;;;;;;;18.50;100.00;99375.33;87318;274;136556;-74
2024/04/25 05:27:04;;;;;;;4.40;4.00;;;;;;;18.40;100.00;99371.46;87508;272;22551;-76
2024/04/25 05:29:06;;;;;;;7.30;4.70;;;;;;;18.50;100.00;99377.53;87454;273;136809;-73
2024/04/25 05:31:07;;;;;;;5.70;5.00;;;;;;;18.57;100.00;99374.80;87519;269;22575;-74
2024/04/25 05:33:08;;;;;;;5.40;3.90;;;;;;;18.63;100.00;99373.43;87500;271;136077;-74
2024/04/25 05:35:09;;;;;;;11.90;4.80;;;;;;;18.52;100.00;99376.52;87504;271;25117;-73
2024/04/25 05:37:09;;;;;;;5.70;4.70;;;;;;;18.32;100.00;99372.06;87277;268;136335;-73
2024/04/25 05:39:10;;;;;;;4.30;3.80;;;;;;;18.24;100.00;99370.36;87537;278;22573;-71
2024/04/25 05:41:11;;;;;;;5.20;4.40;;;;;;;18.30;100.00;99366.89;87053;274;137119;-69
2024/04/25 05:43:12;;;;;;;5.60;4.70;;;;;;;18.35;100.00;99373.10;87197;270;25270;-67
2024/04/25 05:45:13;;;;;;;4.90;4.50;;;;;;;18.20;100.00;99373.95;87014;270;136947;-67
2024/04/25 05:47:15;;;;;;;6.40;5.90;;;;;;;18.03;100.00;99376.77;87091;274;25175;-67
2024/04/25 05:49:16;;;;;;;4.60;4.20;;;;;;;17.99;100.00;99369.69;87266;270;136556;-68
2024/04/25 05:51:16;;;;;;;7.80;5.00;;;;;;;17.96;100.00;99365.03;87125;268;22671;-67
2024/04/25 05:53:18;;;;;;;5.10;3.90;;;;;;;17.78;100.00;99372.27;87149;271;137181;-69
2024/04/25 05:55:19;;;;;;;7.20;5.70;;;;;;;17.58;100.00;99381.23;87149;276;22687;-69
2024/04/25 05:57:19;;;;;;;6.30;5.80;;;;;;;17.36;100.00;99383.43;87233;270;136372;-66
2024/04/25 05:59:20;;;;;;;12.20;10.60;;;;;;;17.06;100.00;99379.11;87236;274;22593;-68
2024/04/25 06:01:21;;;;;;;14.30;12.70;;;;;;;16.81;100.00;99378.20;87030;275;137065;-67
2024/04/25 06:03:21;;;;;;;16.30;14.60;;;;;;;16.68;100.00;99378.35;87158;279;23389;-69
2024/04/25 06:05:22;;;;;;;15.50;13.90;;;;;;;16.65;100.00;99379.77;86990;276;136867;-69
2024/04/25 06:07:23;;;;;;;14.10;12.80;;;;;;;16.67;100.00;99384.27;87179;279;24040;-72
2024/04/25 06:09:24;;;;;;;15.60;14.10;;;;;;;16.74;100.00;99381.44;87381;272;138356;-67
2024/04/25 06:11:27;;;;;;;14.20;13.00;;;;;;;16.82;100.00;99383.33;87099;268;25313;-71
2024/04/25 06:13:27;;;;;;;13.80;12.60;;;;;;;16.85;100.00;99384.67;87087;276;137374;-69
2024/04/25 06:15:28;;;;;;;11.00;10.00;;;;;;;16.90;100.00;99384.71;87160;280;22567;-69
2024/04/25 06:17:29;;;;;;;15.10;11.40;;;;;;;17.01;100.00;99388.96;87098;278;136917;-68
2024/04/25 06:19:29;;;;;;;10.30;9.30;;;;;;;17.20;100.00;99392.61;87255;271;22606;-67
2024/04/25 06:21:31;;;;;;;7.40;6.60;;;;;;;17.58;100.00;99394.01;87023;280;137064;-68
2024/04/25 06:23:34;;;;;;;12.20;5.70;;;;;;;17.87;100.00;99398.13;87096;268;22846;-71
2024/04/25 06:25:36;;;;;;;6.60;4.60;;;;;;;18.03;100.00;99400.48;87212;278;137463;-68
2024/04/25 06:27:37;;;;;;;4.50;4.10;;;;;;;18.08;100.00;99402.91;87587;270;22550;-68
2024/04/25 06:29:38;;;;;;;5.20;4.30;;;;;;;18.07;100.00;99407.27;87145;265;136469;-68
2024/04/25 06:31:39;;;;;;;4.40;3.90;;;;;;;18.15;100.00;99408.77;87244;278;25073;-66
2024/04/25 06:33:40;;;;;;;5.80;4.70;;;;;;;18.41;100.00;99409.27;87017;280;137070;-70
2024/04/25 06:35:41;;;;;;;9.10;8.20;;;;;;;18.73;100.00;99405.31;87255;266;22586;-70
2024/04/25 06:37:41;;;;;;;11.20;10.00;;;;;;;18.76;100.00;99413.21;87078;278;136666;-67
2024/04/25 06:39:42;;;;;;;12.30;11.10;;;;;;;18.59;100.00;99414.70;87119;272;26201;-69
2024/04/25 06:41:43;;;;;;;13.20;12.00;;;;;;;18.47;100.00;99415.09;87233;270;137288;-73
2024/04/25 06:43:44;;;;;;;15.30;14.00;;;;;;;18.34;100.00;99410.00;87254;275;27296;-70
2024/04/25 06:45:44;;;;;;;15.40;14.00;;;;;;;18.15;100.00;99406.17;87168;267;136506;-69
2024/04/25 06:47:45;;;;;;;14.20;13.00;;;;;;;18.00;100.00;99403.23;87263;271;25305;-67
2024/04/25 06:49:46;;;;;;;17.70;15.50;;;;;;;17.93;100.00;99398.17;87108;270;137092;-68
2024/04/25 06:51:46;;;;;;;16.10;14.60;;;;;;;17.90;100.00;99397.08;87319;266;25108;-67
2024/04/25 06:55:03;;;;;;;14.70;13.40;;;;;;;17.89;100.00;99400.47;85094;300;603929;-68
2024/04/25 06:57:04;;;;;;;16.10;14.40;;;;;;;18.02;100.00;99405.13;86118;286;136915;-68
2024/04/25 06:59:05;;;;;;;15.50;13.10;;;;;;;18.26;100.00;99404.13;86044;286;22587;-68
2024/04/25 07:01:06;;;;;;;13.50;12.20;;;;;;;18.46;100.00;99409.20;85940;293;135880;-70
2024/04/25 07:03:08;;;;;;;12.90;11.60;;;;;;;18.55;100.00;99414.09;87055;269;24175;-69
2024/04/25 07:05:09;;;;;;;11.90;10.80;;;;;;;18.65;100.00;99415.81;86899;281;136531;-68
2024/04/25 07:07:10;;;;;;;9.10;8.30;;;;;;;18.75;100.00;99414.71;87057;274;24271;-69
2024/04/25 07:09:11;;;;;;;9.30;8.50;;;;;;;18.68;100.00;99417.87;86312;274;1141160;-68
2024/04/25 07:11:12;;;;;;;10.10;6.60;;;;;;;18.53;100.00;99422.50;87101;280;23766;-71
2024/04/25 07:13:12;;;;;;;5.70;3.90;;;;;;;18.43;100.00;99422.89;86846;279;136713;-68
2024/04/25 07:15:13;;;;;;;3.40;3.00;;;;;;;18.37;100.00;99425.77;87108;272;25204;-67
2024/04/25 07:17:14;;;;;;;4.00;3.10;;;;;;;18.17;100.00;99429.38;86930;270;135926;-68
2024/04/25 07:19:16;;;;;;;5.00;2.90;;;;;;;17.96;100.00;99430.98;87094;274;25396;-69
2024/04/25 07:21:17;;;;;;;4.40;1.90;;;;;;;17.82;100.00;99437.10;87012;276;135998;-73
2024/04/25 07:23:17;;;;;;;6.10;2.40;;;;;;;17.75;100.00;99437.52;87090;273;25281;-71
2024/04/25 07:25:18;;;;;;;1.60;1.30;;;;;;;17.75;100.00;99435.33;86918;273;136591;-69
2024/04/25 07:27:19;;;;;;;1.30;1.20;;;;;;;17.71;100.00;99437.17;87142;281;22575;-69
2024/04/25 07:29:19;;;;;;;2.20;1.90;;;;;;;17.61;100.00;99441.23;87048;272;137209;-69
2024/04/25 07:31:20;;;;;;;4.60;1.90;;;;;;;17.50;100.00;99438.79;87086;282;24321;-70
2024/04/25 07:33:21;;;;;;;2.70;1.70;;;;;;;17.47;100.00;99438.04;86891;274;136255;-69
2024/04/25 07:35:21;;;;;;;3.10;1.50;;;;;;;17.51;100.00;99435.55;87099;273;22567;-68
2024/04/25 07:37:25;;;;;;;1.90;1.20;;;;;;;17.50;100.00;99433.39;87018;281;135906;-71
2024/04/25 07:39:26;;;;;;;1.30;1.20;;;;;;;17.46;100.00;99430.35;87451;279;22604;-72
2024/04/25 07:41:31;;;;;;;3.50;1.20;;;;;;;17.49;100.00;99430.89;87014;267;136309;-70
2024/04/25 07:43:32;;;;;;;1.40;1.30;;;;;;;17.55;100.00;99431.92;87327;271;22566;-69
2024/04/25 07:45:33;;;;;;;5.20;1.90;;;;;;;17.56;100.00;99432.14;87032;278;138200;-69
2024/04/25 07:47:34;;;;;;;1.50;0.80;;;;;;;17.55;100.00;99439.58;87166;272;25380;-74
2024/04/25 07:49:34;;;;;;;2.10;1.90;;;;;;;17.49;100.00;99440.71;86840;271;136377;-70
2024/04/25 07:51:35;;;;;;;3.10;1.30;;;;;;;17.46;100.00;99438.58;87081;272;23618;-71
2024/04/25 07:53:36;;;;;;;3.10;1.20;;;;;;;17.42;100.00;99438.23;87005;272;136209;-71
2024/04/25 07:55:38;;;;;;;2.00;1.40;;;;;;;17.33;100.00;99437.39;87108;265;24132;-72
2024/04/25 07:57:39;;;;;;;2.70;0.80;;;;;;;17.25;100.00;99438.75;87100;273;135887;-73
2024/04/25 07:59:40;;;;;;;1.20;0.70;;;;;;;17.22;100.00;99442.83;87235;280;25339;-71
2024/04/25 08:01:40;;;;;;;2.60;1.30;;;;;;;17.22;100.00;99447.02;87151;267;150386;-71
2024/04/25 08:03:41;;;;;;;4.90;1.10;;;;;;;17.16;100.00;99447.12;87292;266;24114;-71
2024/04/25 08:05:42;;;;;;;1.80;0.90;;;;;;;17.08;100.00;99439.34;87177;267;136123;-70
2024/04/25 08:07:46;;;;;;;1.30;0.70;;;;;;;17.07;100.00;99439.92;87181;267;24294;-73
2024/04/25 08:09:46;;;;;;;1.90;1.50;;;;;;;17.14;100.00;99436.81;87391;275;136571;-77
2024/04/25 08:11:47;;;;;;;2.30;0.90;;;;;;;17.23;100.00;99437.08;87801;268;24007;-81
2024/04/25 08:13:48;;;;;;;4.70;1.10;;;;;;;17.32;100.00;99437.91;87462;282;136241;-80
2024/04/25 08:15:49;;;;;;;4.00;1.00;;;;;;;17.39;100.00;99442.81;87829;274;23772;-83
2024/04/25 08:17:51;;;;;;;1.40;1.10;;;;;;;17.41;100.00;99442.52;88073;274;136092;-82
2024/04/25 08:19:54;;;;;;;1.40;1.30;;;;;;;17.38;100.00;99442.54;88179;281;22583;-79
2024/04/25 08:21:54;;;;;;;1.40;0.90;;;;;;;17.39;100.00;99442.12;88023;273;137319;-79
2024/04/25 08:23:55;;;;;;;1.60;1.30;;;;;;;17.45;100.00;99437.01;87980;281;22817;-84
2024/04/25 08:25:56;;;;;;;1.40;1.20;;;;;;;17.56;100.00;99435.86;87490;271;135873;-80
2024/04/25 08:27:57;;;;;;;2.10;0.70;;;;;;;17.64;100.00;99431.56;87760;280;24490;-77
2024/04/25 08:29:58;;;;;;;1.00;0.20;;;;;;;17.69;100.00;99431.71;87574;279;136320;-81
2024/04/25 08:31:58;;;;;;;2.40;0.40;;;;;;;17.75;100.00;99424.42;87205;272;25238;-72
2024/04/25 08:33:59;;;;;;;3.30;0.80;;;;;;;17.79;100.00;99423.34;87072;269;136733;-73
2024/04/25 08:36:00;;;;;;;2.30;0.40;;;;;;;17.80;100.00;99425.38;87093;288;22579;-74
2024/04/25 08:38:01;;;;;;;1.30;0.60;;;;;;;17.84;100.00;99430.66;87358;280;138488;-81
2024/04/25 08:40:03;;;;;;;2.10;0.50;;;;;;;17.89;100.00;99426.08;87143;271;24066;-76
2024/04/25 08:42:09;;;;;;;0.90;0.40;;;;;;;17.89;100.00;99423.77;87204;279;24024;-75
2024/04/25 08:44:10;;;;;;;1.30;0.90;;;;;;;17.90;100.00;99425.33;87178;279;137019;-75
2024/04/25 08:46:16;;;;;;;2.30;0.80;;;;;;;17.91;100.00;99424.85;87204;272;24177;-76
2024/04/25 08:48:20;;;;;;;4.40;0.90;;;;;;;17.96;100.00;99418.80;87036;280;136901;-71
2024/04/25 08:50:23;;;;;;;1.90;0.50;;;;;;;17.99;100.00;99420.70;87173;273;22562;-74
2024/04/25 08:52:27;;;;;;;3.00;0.80;;;;;;;17.98;100.00;99420.10;87107;269;135938;-75
2024/04/25 08:54:29;;;;;;;1.90;0.70;;;;;;;17.96;100.00;99420.57;87201;273;24004;-76
2024/04/25 08:56:33;;;;;;;1.80;0.40;;;;;;;17.97;100.00;99417.17;87019;280;137147;-73
2024/04/25 08:58:34;;;;;;;1.00;0.80;;;;;;;18.02;100.00;99415.48;87123;274;24071;-76
2024/04/25 09:00:34;;;;;;;1.00;0.30;;;;;;;18.08;100.00;99413.42;86973;271;136406;-78
2024/04/25 09:02:35;;;;;;;0.80;0.40;;;;;;;18.09;100.00;99414.02;87081;271;25271;-76
2024/04/25 09:04:39;;;;;;;1.00;0.70;;;;;;;18.05;100.00;99415.23;87036;273;136015;-73
2024/04/25 09:06:40;;;;;;;1.40;0.50;;;;;;;18.07;100.00;99416.86;87093;277;22486;-74
2024/04/25 09:08:41;;;;;;;2.90;0.40;;;;;;;18.11;100.00;99416.29;87021;280;135986;-77
2024/04/25 09:10:43;;;;;;;1.80;0.60;;;;;;;18.12;100.00;99416.04;87191;268;25264;-74
2024/04/25 09:12:43;;;;;;;0.90;0.50;;;;;;;18.14;100.00;99416.30;86963;272;135508;-76
2024/04/25 09:14:44;;;;;;;1.70;0.70;;;;;;;18.14;100.00;99417.29;87149;273;23969;-77
2024/04/25 09:16:45;;;;;;;1.30;0.60;;;;;;;18.12;100.00;99420.02;87170;272;135351;-75
2024/04/25 09:18:47;;;;;;;3.30;0.70;;;;;;;18.12;100.00;99416.84;87668;272;23950;-75
2024/04/25 09:20:47;;;;;;;1.10;1.00;;;;;;;18.17;100.00;99415.95;87751;272;136396;-74
2024/04/25 09:22:50;;;;;;;1.30;0.90;;;;;;;18.23;100.00;99417.34;87885;268;24202;-71
2024/04/25 09:24:51;;;;;;;3.30;1.80;;;;;;;18.31;100.00;99418.30;88087;279;137321;-73
2024/04/25 09:26:52;;;;;;;5.20;2.00;;;;;;;18.42;100.00;99423.70;88163;276;22565;-73
2024/04/25 09:28:53;;;;;;;9.50;3.00;;;;;;;18.53;100.00;99424.12;87515;272;137840;-76
2024/04/25 09:30:54;;;;;;;11.70;2.80;;;;;;;18.58;100.00;99420.15;87347;280;22579;-77
2024/04/25 09:32:55;;;;;;;13.40;2.80;;;;;;;18.61;100.00;99420.27;87226;263;136294;-75